sensor_id;sensor_type;location;lat;lon;timestamp;P1;durP1;ratioP1;P2;durP2;ratioP2
33690;SDS011;20026;50.058;18.428;2023-02-18T00:01:36;56.33;;;30.05;;
33690;SDS011;20026;50.058;18.428;2023-02-18T00:04:02;35.17;;;18.58;;
33690;SDS011;20026;50.058;18.428;2023-02-18T00:06:29;35.70;;;21.27;;
33690;SDS011;20026;50.058;18.428;2023-02-18T00:08:56;34.47;;;20.60;;
33690;SDS011;20026;50.058;18.428;2023-02-18T00:11:25;43.97;;;25.60;;
33690;SDS011;20026;50.058;18.428;2023-02-18T00:13:55;43.22;;;24.15;;
33690;SDS011;20026;50.058;18.428;2023-02-18T00:16:22;33.45;;;20.33;;
33690;SDS011;20026;50.058;18.428;2023-02-18T00:18:48;43.38;;;22.23;;
33690;SDS011;20026;50.058;18.428;2023-02-18T00:21:14;30.55;;;20.17;;
33690;SDS011;20026;50.058;18.428;2023-02-18T00:23:41;33.75;;;19.92;;
33690;SDS011;20026;50.058;18.428;2023-02-18T00:26:09;30.55;;;16.58;;
33690;SDS011;20026;50.058;18.428;2023-02-18T00:28:35;33.97;;;19.77;;
33690;SDS011;20026;50.058;18.428;2023-02-18T00:31:08;36.35;;;20.98;;
33690;SDS011;20026;50.058;18.428;2023-02-18T00:33:34;41.75;;;22.90;;
33690;SDS011;20026;50.058;18.428;2023-02-18T00:36:01;36.83;;;22.48;;
33690;SDS011;20026;50.058;18.428;2023-02-18T00:38:27;41.92;;;31.13;;
33690;SDS011;20026;50.058;18.428;2023-02-18T00:40:53;228.35;;;197.25;;
33690;SDS011;20026;50.058;18.428;2023-02-18T00:43:19;63.92;;;57.08;;
33690;SDS011;20026;50.058;18.428;2023-02-18T00:45:45;41.70;;;28.60;;
33690;SDS011;20026;50.058;18.428;2023-02-18T00:48:11;26.20;;;17.30;;
33690;SDS011;20026;50.058;18.428;2023-02-18T00:50:37;23.63;;;13.63;;
33690;SDS011;20026;50.058;18.428;2023-02-18T00:53:03;17.30;;;9.27;;
33690;SDS011;20026;50.058;18.428;2023-02-18T00:55:29;11.32;;;6.07;;
33690;SDS011;20026;50.058;18.428;2023-02-18T00:57:55;5.78;;;3.53;;
33690;SDS011;20026;50.058;18.428;2023-02-18T01:00:21;3.35;;;2.65;;
33690;SDS011;20026;50.058;18.428;2023-02-18T01:02:49;4.68;;;2.42;;
33690;SDS011;20026;50.058;18.428;2023-02-18T01:05:18;4.63;;;2.80;;
33690;SDS011;20026;50.058;18.428;2023-02-18T01:07:44;7.03;;;3.60;;
33690;SDS011;20026;50.058;18.428;2023-02-18T01:10:10;9.70;;;4.70;;
33690;SDS011;20026;50.058;18.428;2023-02-18T01:12:36;6.05;;;3.80;;
33690;SDS011;20026;50.058;18.428;2023-02-18T01:15:03;9.68;;;4.63;;
33690;SDS011;20026;50.058;18.428;2023-02-18T01:17:29;7.10;;;4.35;;
33690;SDS011;20026;50.058;18.428;2023-02-18T01:19:55;5.97;;;3.83;;
33690;SDS011;20026;50.058;18.428;2023-02-18T01:22:21;6.25;;;3.42;;
33690;SDS011;20026;50.058;18.428;2023-02-18T01:24:47;5.78;;;4.35;;
33690;SDS011;20026;50.058;18.428;2023-02-18T01:27:13;6.05;;;3.40;;
33690;SDS011;20026;50.058;18.428;2023-02-18T01:29:39;13.88;;;10.07;;
33690;SDS011;20026;50.058;18.428;2023-02-18T01:32:05;5.43;;;3.42;;
33690;SDS011;20026;50.058;18.428;2023-02-18T01:34:31;7.57;;;3.90;;
33690;SDS011;20026;50.058;18.428;2023-02-18T01:36:57;7.85;;;4.57;;
33690;SDS011;20026;50.058;18.428;2023-02-18T01:39:23;7.35;;;4.10;;
33690;SDS011;20026;50.058;18.428;2023-02-18T01:41:49;4.90;;;2.97;;
33690;SDS011;20026;50.058;18.428;2023-02-18T01:44:17;5.53;;;3.60;;
33690;SDS011;20026;50.058;18.428;2023-02-18T01:46:43;4.65;;;3.53;;
33690;SDS011;20026;50.058;18.428;2023-02-18T01:49:09;6.78;;;3.80;;
33690;SDS011;20026;50.058;18.428;2023-02-18T01:51:38;5.45;;;3.00;;
33690;SDS011;20026;50.058;18.428;2023-02-18T01:59:25;10.63;;;8.00;;
33690;SDS011;20026;50.058;18.428;2023-02-18T02:01:52;6.90;;;4.22;;
33690;SDS011;20026;50.058;18.428;2023-02-18T02:04:19;6.18;;;3.10;;
33690;SDS011;20026;50.058;18.428;2023-02-18T02:06:45;6.80;;;3.72;;
33690;SDS011;20026;50.058;18.428;2023-02-18T02:09:12;5.97;;;3.20;;
33690;SDS011;20026;50.058;18.428;2023-02-18T02:16:52;86.43;;;76.22;;
33690;SDS011;20026;50.058;18.428;2023-02-18T02:19:40;26.25;;;23.60;;
33690;SDS011;20026;50.058;18.428;2023-02-18T02:27:22;22.08;;;14.90;;
33690;SDS011;20026;50.058;18.428;2023-02-18T02:40:48;11.00;;;9.48;;
33690;SDS011;20026;50.058;18.428;2023-02-18T02:43:26;9.68;;;6.18;;
33690;SDS011;20026;50.058;18.428;2023-02-18T02:45:58;9.07;;;4.85;;
33690;SDS011;20026;50.058;18.428;2023-02-18T02:53:43;7.55;;;4.25;;
33690;SDS011;20026;50.058;18.428;2023-02-18T02:56:15;6.25;;;3.40;;
33690;SDS011;20026;50.058;18.428;2023-02-18T02:58:41;5.95;;;3.75;;
33690;SDS011;20026;50.058;18.428;2023-02-18T03:01:13;10.93;;;8.05;;
33690;SDS011;20026;50.058;18.428;2023-02-18T03:11:52;4.45;;;2.55;;
33690;SDS011;20026;50.058;18.428;2023-02-18T03:14:33;9.18;;;5.38;;
33690;SDS011;20026;50.058;18.428;2023-02-18T03:19:31;4.50;;;2.55;;
33690;SDS011;20026;50.058;18.428;2023-02-18T03:22:06;6.28;;;4.20;;
33690;SDS011;20026;50.058;18.428;2023-02-18T03:24:42;65.53;;;52.63;;
33690;SDS011;20026;50.058;18.428;2023-02-18T03:27:11;6.57;;;4.35;;
33690;SDS011;20026;50.058;18.428;2023-02-18T03:29:37;7.35;;;4.93;;
33690;SDS011;20026;50.058;18.428;2023-02-18T03:32:05;12.75;;;5.60;;
33690;SDS011;20026;50.058;18.428;2023-02-18T03:34:34;4.22;;;2.20;;
33690;SDS011;20026;50.058;18.428;2023-02-18T03:37:03;4.10;;;1.77;;
33690;SDS011;20026;50.058;18.428;2023-02-18T03:39:29;4.15;;;2.08;;
33690;SDS011;20026;50.058;18.428;2023-02-18T03:41:57;5.80;;;2.33;;
33690;SDS011;20026;50.058;18.428;2023-02-18T03:44:23;21.90;;;19.27;;
33690;SDS011;20026;50.058;18.428;2023-02-18T03:46:49;29.45;;;26.60;;
33690;SDS011;20026;50.058;18.428;2023-02-18T03:49:15;6.80;;;4.80;;
33690;SDS011;20026;50.058;18.428;2023-02-18T03:51:41;4.15;;;2.35;;
33690;SDS011;20026;50.058;18.428;2023-02-18T03:54:08;4.45;;;2.40;;
33690;SDS011;20026;50.058;18.428;2023-02-18T03:56:34;4.55;;;2.42;;
33690;SDS011;20026;50.058;18.428;2023-02-18T03:59:00;6.88;;;2.85;;
33690;SDS011;20026;50.058;18.428;2023-02-18T04:01:27;7.10;;;3.03;;
33690;SDS011;20026;50.058;18.428;2023-02-18T04:03:53;3.58;;;1.90;;
33690;SDS011;20026;50.058;18.428;2023-02-18T04:06:20;4.63;;;1.98;;
33690;SDS011;20026;50.058;18.428;2023-02-18T04:08:46;4.60;;;2.05;;
33690;SDS011;20026;50.058;18.428;2023-02-18T04:11:12;9.57;;;3.15;;
33690;SDS011;20026;50.058;18.428;2023-02-18T04:13:38;18.45;;;8.60;;
33690;SDS011;20026;50.058;18.428;2023-02-18T04:16:04;7.30;;;3.30;;
33690;SDS011;20026;50.058;18.428;2023-02-18T04:18:30;3.70;;;2.30;;
33690;SDS011;20026;50.058;18.428;2023-02-18T04:20:56;6.68;;;2.42;;
33690;SDS011;20026;50.058;18.428;2023-02-18T04:23:22;8.13;;;2.70;;
33690;SDS011;20026;50.058;18.428;2023-02-18T04:25:48;22.15;;;20.02;;
33690;SDS011;20026;50.058;18.428;2023-02-18T04:28:14;82.65;;;70.38;;
33690;SDS011;20026;50.058;18.428;2023-02-18T04:30:41;21.67;;;12.15;;
33690;SDS011;20026;50.058;18.428;2023-02-18T04:33:07;8.45;;;4.63;;
33690;SDS011;20026;50.058;18.428;2023-02-18T04:35:33;4.65;;;1.92;;
33690;SDS011;20026;50.058;18.428;2023-02-18T04:38:00;6.32;;;2.80;;
33690;SDS011;20026;50.058;18.428;2023-02-18T04:40:26;6.90;;;2.55;;
33690;SDS011;20026;50.058;18.428;2023-02-18T04:42:55;4.57;;;2.20;;
33690;SDS011;20026;50.058;18.428;2023-02-18T04:45:21;11.45;;;4.07;;
33690;SDS011;20026;50.058;18.428;2023-02-18T04:47:47;7.25;;;2.60;;
33690;SDS011;20026;50.058;18.428;2023-02-18T04:50:13;9.40;;;3.97;;
33690;SDS011;20026;50.058;18.428;2023-02-18T04:52:39;8.25;;;2.90;;
33690;SDS011;20026;50.058;18.428;2023-02-18T04:55:05;9.23;;;4.80;;
33690;SDS011;20026;50.058;18.428;2023-02-18T04:57:31;7.30;;;3.70;;
33690;SDS011;20026;50.058;18.428;2023-02-18T04:59:57;6.45;;;3.10;;
33690;SDS011;20026;50.058;18.428;2023-02-18T05:02:23;9.60;;;4.72;;
33690;SDS011;20026;50.058;18.428;2023-02-18T05:04:49;11.32;;;5.13;;
33690;SDS011;20026;50.058;18.428;2023-02-18T05:07:15;8.95;;;3.88;;
33690;SDS011;20026;50.058;18.428;2023-02-18T05:09:41;31.80;;;18.58;;
33690;SDS011;20026;50.058;18.428;2023-02-18T05:12:07;6.97;;;3.13;;
33690;SDS011;20026;50.058;18.428;2023-02-18T05:14:33;5.75;;;2.50;;
33690;SDS011;20026;50.058;18.428;2023-02-18T05:16:59;5.15;;;2.10;;
33690;SDS011;20026;50.058;18.428;2023-02-18T05:19:25;8.48;;;2.80;;
33690;SDS011;20026;50.058;18.428;2023-02-18T05:21:51;7.72;;;3.28;;
33690;SDS011;20026;50.058;18.428;2023-02-18T05:24:17;10.23;;;3.90;;
33690;SDS011;20026;50.058;18.428;2023-02-18T05:26:43;9.20;;;2.72;;
33690;SDS011;20026;50.058;18.428;2023-02-18T05:29:09;11.20;;;4.35;;
33690;SDS011;20026;50.058;18.428;2023-02-18T05:31:35;12.80;;;7.88;;
33690;SDS011;20026;50.058;18.428;2023-02-18T05:34:02;13.80;;;7.15;;
33690;SDS011;20026;50.058;18.428;2023-02-18T05:36:28;12.55;;;8.52;;
33690;SDS011;20026;50.058;18.428;2023-02-18T05:38:54;5.22;;;2.45;;
33690;SDS011;20026;50.058;18.428;2023-02-18T05:41:20;12.27;;;4.57;;
33690;SDS011;20026;50.058;18.428;2023-02-18T05:43:46;6.78;;;3.15;;
33690;SDS011;20026;50.058;18.428;2023-02-18T05:46:31;5.00;;;1.90;;
33690;SDS011;20026;50.058;18.428;2023-02-18T05:48:57;5.85;;;2.10;;
33690;SDS011;20026;50.058;18.428;2023-02-18T05:51:23;5.43;;;2.10;;
33690;SDS011;20026;50.058;18.428;2023-02-18T05:53:49;4.53;;;2.50;;
33690;SDS011;20026;50.058;18.428;2023-02-18T05:56:15;33.33;;;29.73;;
33690;SDS011;20026;50.058;18.428;2023-02-18T05:58:41;12.90;;;5.40;;
33690;SDS011;20026;50.058;18.428;2023-02-18T06:01:06;13.20;;;6.05;;
33690;SDS011;20026;50.058;18.428;2023-02-18T06:03:32;11.15;;;5.40;;
33690;SDS011;20026;50.058;18.428;2023-02-18T06:05:58;11.45;;;5.80;;
33690;SDS011;20026;50.058;18.428;2023-02-18T06:08:24;11.52;;;4.70;;
33690;SDS011;20026;50.058;18.428;2023-02-18T06:10:51;6.28;;;2.75;;
33690;SDS011;20026;50.058;18.428;2023-02-18T06:13:16;5.82;;;2.90;;
33690;SDS011;20026;50.058;18.428;2023-02-18T06:15:43;7.07;;;3.30;;
33690;SDS011;20026;50.058;18.428;2023-02-18T06:18:09;22.40;;;12.85;;
33690;SDS011;20026;50.058;18.428;2023-02-18T06:20:34;14.18;;;8.65;;
33690;SDS011;20026;50.058;18.428;2023-02-18T06:23:00;89.50;;;79.82;;
33690;SDS011;20026;50.058;18.428;2023-02-18T06:25:26;18.02;;;7.57;;
33690;SDS011;20026;50.058;18.428;2023-02-18T06:27:52;8.35;;;3.63;;
33690;SDS011;20026;50.058;18.428;2023-02-18T06:30:18;7.00;;;2.70;;
33690;SDS011;20026;50.058;18.428;2023-02-18T06:32:44;15.13;;;5.55;;
33690;SDS011;20026;50.058;18.428;2023-02-18T06:35:10;13.60;;;4.60;;
33690;SDS011;20026;50.058;18.428;2023-02-18T06:37:36;10.52;;;3.13;;
33690;SDS011;20026;50.058;18.428;2023-02-18T06:40:02;5.30;;;2.53;;
33690;SDS011;20026;50.058;18.428;2023-02-18T06:42:28;11.05;;;4.57;;
33690;SDS011;20026;50.058;18.428;2023-02-18T06:44:54;9.07;;;3.55;;
33690;SDS011;20026;50.058;18.428;2023-02-18T06:47:20;7.25;;;3.35;;
33690;SDS011;20026;50.058;18.428;2023-02-18T06:49:46;11.85;;;3.65;;
33690;SDS011;20026;50.058;18.428;2023-02-18T06:52:13;10.13;;;4.63;;
33690;SDS011;20026;50.058;18.428;2023-02-18T06:54:39;11.40;;;4.88;;
33690;SDS011;20026;50.058;18.428;2023-02-18T06:57:05;12.88;;;5.90;;
33690;SDS011;20026;50.058;18.428;2023-02-18T06:59:31;10.88;;;5.28;;
33690;SDS011;20026;50.058;18.428;2023-02-18T07:01:57;9.93;;;4.30;;
33690;SDS011;20026;50.058;18.428;2023-02-18T07:04:23;17.08;;;10.98;;
33690;SDS011;20026;50.058;18.428;2023-02-18T07:06:49;15.07;;;6.50;;
33690;SDS011;20026;50.058;18.428;2023-02-18T07:09:15;110.25;;;85.80;;
33690;SDS011;20026;50.058;18.428;2023-02-18T07:11:41;14.15;;;9.15;;
33690;SDS011;20026;50.058;18.428;2023-02-18T07:14:07;12.93;;;5.97;;
33690;SDS011;20026;50.058;18.428;2023-02-18T07:16:33;8.35;;;3.83;;
33690;SDS011;20026;50.058;18.428;2023-02-18T07:18:59;11.95;;;5.00;;
33690;SDS011;20026;50.058;18.428;2023-02-18T07:21:25;15.02;;;5.32;;
33690;SDS011;20026;50.058;18.428;2023-02-18T07:23:51;11.30;;;5.00;;
33690;SDS011;20026;50.058;18.428;2023-02-18T07:26:17;10.32;;;6.13;;
33690;SDS011;20026;50.058;18.428;2023-02-18T07:28:43;8.40;;;3.33;;
33690;SDS011;20026;50.058;18.428;2023-02-18T07:31:09;9.23;;;4.10;;
33690;SDS011;20026;50.058;18.428;2023-02-18T07:33:35;9.70;;;3.33;;
33690;SDS011;20026;50.058;18.428;2023-02-18T07:36:02;13.77;;;3.63;;
33690;SDS011;20026;50.058;18.428;2023-02-18T07:38:28;14.07;;;4.10;;
33690;SDS011;20026;50.058;18.428;2023-02-18T07:40:55;12.48;;;4.68;;
33690;SDS011;20026;50.058;18.428;2023-02-18T07:43:21;9.27;;;4.65;;
33690;SDS011;20026;50.058;18.428;2023-02-18T07:45:47;9.00;;;4.05;;
33690;SDS011;20026;50.058;18.428;2023-02-18T07:48:13;25.38;;;10.38;;
33690;SDS011;20026;50.058;18.428;2023-02-18T07:53:42;15.02;;;6.60;;
33690;SDS011;20026;50.058;18.428;2023-02-18T07:56:08;13.95;;;5.30;;
33690;SDS011;20026;50.058;18.428;2023-02-18T07:58:35;16.65;;;6.80;;
33690;SDS011;20026;50.058;18.428;2023-02-18T08:01:05;17.25;;;5.65;;
33690;SDS011;20026;50.058;18.428;2023-02-18T08:03:31;15.45;;;6.65;;
33690;SDS011;20026;50.058;18.428;2023-02-18T08:05:58;16.65;;;6.00;;
33690;SDS011;20026;50.058;18.428;2023-02-18T08:08:25;12.60;;;4.90;;
33690;SDS011;20026;50.058;18.428;2023-02-18T08:10:53;10.63;;;4.18;;
33690;SDS011;20026;50.058;18.428;2023-02-18T08:13:20;19.08;;;8.27;;
33690;SDS011;20026;50.058;18.428;2023-02-18T08:15:46;64.25;;;51.42;;
33690;SDS011;20026;50.058;18.428;2023-02-18T08:18:18;25.00;;;16.83;;
33690;SDS011;20026;50.058;18.428;2023-02-18T08:20:44;14.73;;;6.32;;
33690;SDS011;20026;50.058;18.428;2023-02-18T08:23:11;24.73;;;10.02;;
33690;SDS011;20026;50.058;18.428;2023-02-18T08:25:38;19.40;;;8.18;;
33690;SDS011;20026;50.058;18.428;2023-02-18T08:28:04;18.40;;;8.60;;
33690;SDS011;20026;50.058;18.428;2023-02-18T08:30:30;20.65;;;8.55;;
33690;SDS011;20026;50.058;18.428;2023-02-18T08:32:56;23.95;;;10.15;;
33690;SDS011;20026;50.058;18.428;2023-02-18T08:35:22;35.70;;;13.48;;
33690;SDS011;20026;50.058;18.428;2023-02-18T08:37:48;23.90;;;10.43;;
33690;SDS011;20026;50.058;18.428;2023-02-18T08:40:14;24.77;;;10.73;;
33690;SDS011;20026;50.058;18.428;2023-02-18T08:42:40;28.10;;;12.40;;
33690;SDS011;20026;50.058;18.428;2023-02-18T08:45:07;30.65;;;14.70;;
33690;SDS011;20026;50.058;18.428;2023-02-18T08:47:33;31.45;;;14.65;;
33690;SDS011;20026;50.058;18.428;2023-02-18T08:49:59;27.50;;;13.05;;
33690;SDS011;20026;50.058;18.428;2023-02-18T08:52:25;35.28;;;14.90;;
33690;SDS011;20026;50.058;18.428;2023-02-18T08:54:51;24.98;;;11.60;;
33690;SDS011;20026;50.058;18.428;2023-02-18T08:57:17;25.13;;;13.05;;
33690;SDS011;20026;50.058;18.428;2023-02-18T08:59:43;37.65;;;20.40;;
33690;SDS011;20026;50.058;18.428;2023-02-18T09:02:12;37.60;;;16.38;;
33690;SDS011;20026;50.058;18.428;2023-02-18T09:04:38;37.30;;;20.33;;
33690;SDS011;20026;50.058;18.428;2023-02-18T09:07:04;45.47;;;22.60;;
33690;SDS011;20026;50.058;18.428;2023-02-18T09:09:31;40.05;;;20.17;;
33690;SDS011;20026;50.058;18.428;2023-02-18T09:11:57;19.90;;;9.68;;
33690;SDS011;20026;50.058;18.428;2023-02-18T09:14:23;17.55;;;7.97;;
33690;SDS011;20026;50.058;18.428;2023-02-18T09:16:49;26.23;;;12.38;;
33690;SDS011;20026;50.058;18.428;2023-02-18T09:19:15;35.45;;;13.45;;
33690;SDS011;20026;50.058;18.428;2023-02-18T09:21:41;15.50;;;7.18;;
33690;SDS011;20026;50.058;18.428;2023-02-18T09:24:07;19.88;;;7.25;;
33690;SDS011;20026;50.058;18.428;2023-02-18T09:26:33;16.55;;;8.13;;
33690;SDS011;20026;50.058;18.428;2023-02-18T09:29:00;18.83;;;8.15;;
33690;SDS011;20026;50.058;18.428;2023-02-18T09:31:26;16.63;;;6.88;;
33690;SDS011;20026;50.058;18.428;2023-02-18T09:33:53;17.02;;;5.70;;
33690;SDS011;20026;50.058;18.428;2023-02-18T09:36:19;11.07;;;3.90;;
33690;SDS011;20026;50.058;18.428;2023-02-18T09:38:46;25.83;;;8.55;;
33690;SDS011;20026;50.058;18.428;2023-02-18T09:47:02;22.23;;;8.00;;
33690;SDS011;20026;50.058;18.428;2023-02-18T09:49:33;9.77;;;4.20;;
33690;SDS011;20026;50.058;18.428;2023-02-18T09:52:09;10.70;;;4.35;;
33690;SDS011;20026;50.058;18.428;2023-02-18T09:54:36;9.52;;;4.03;;
33690;SDS011;20026;50.058;18.428;2023-02-18T09:57:02;15.55;;;5.38;;
33690;SDS011;20026;50.058;18.428;2023-02-18T09:59:28;20.55;;;7.25;;
33690;SDS011;20026;50.058;18.428;2023-02-18T10:01:55;27.27;;;10.63;;
33690;SDS011;20026;50.058;18.428;2023-02-18T10:04:29;15.20;;;5.82;;
33690;SDS011;20026;50.058;18.428;2023-02-18T10:06:56;17.30;;;7.22;;
33690;SDS011;20026;50.058;18.428;2023-02-18T10:09:24;22.90;;;7.72;;
33690;SDS011;20026;50.058;18.428;2023-02-18T10:11:56;20.17;;;7.05;;
33690;SDS011;20026;50.058;18.428;2023-02-18T10:14:23;18.88;;;9.73;;
33690;SDS011;20026;50.058;18.428;2023-02-18T10:16:50;13.15;;;6.20;;
33690;SDS011;20026;50.058;18.428;2023-02-18T10:19:22;13.00;;;4.95;;
33690;SDS011;20026;50.058;18.428;2023-02-18T10:21:49;11.38;;;4.70;;
33690;SDS011;20026;50.058;18.428;2023-02-18T10:24:32;8.73;;;3.90;;
33690;SDS011;20026;50.058;18.428;2023-02-18T10:26:59;11.98;;;4.40;;
33690;SDS011;20026;50.058;18.428;2023-02-18T10:29:26;10.10;;;3.85;;
33690;SDS011;20026;50.058;18.428;2023-02-18T10:31:55;9.68;;;3.92;;
33690;SDS011;20026;50.058;18.428;2023-02-18T10:34:41;20.55;;;7.68;;
33690;SDS011;20026;50.058;18.428;2023-02-18T10:42:42;30.08;;;10.40;;
33690;SDS011;20026;50.058;18.428;2023-02-18T10:50:37;41.00;;;14.82;;
33690;SDS011;20026;50.058;18.428;2023-02-18T10:53:24;33.50;;;12.68;;
33690;SDS011;20026;50.058;18.428;2023-02-18T10:55:51;35.00;;;11.07;;
33690;SDS011;20026;50.058;18.428;2023-02-18T11:00:49;33.67;;;14.83;;
33690;SDS011;20026;50.058;18.428;2023-02-18T11:03:16;32.20;;;14.50;;
33690;SDS011;20026;50.058;18.428;2023-02-18T11:05:44;23.25;;;11.48;;
33690;SDS011;20026;50.058;18.428;2023-02-18T11:08:13;26.02;;;12.05;;
33690;SDS011;20026;50.058;18.428;2023-02-18T11:10:42;38.70;;;15.77;;
33690;SDS011;20026;50.058;18.428;2023-02-18T11:13:09;27.42;;;12.07;;
33690;SDS011;20026;50.058;18.428;2023-02-18T11:15:35;21.65;;;9.43;;
33690;SDS011;20026;50.058;18.428;2023-02-18T11:18:14;26.02;;;9.95;;
33690;SDS011;20026;50.058;18.428;2023-02-18T11:20:54;41.45;;;15.65;;
33690;SDS011;20026;50.058;18.428;2023-02-18T11:23:20;23.95;;;9.85;;
33690;SDS011;20026;50.058;18.428;2023-02-18T11:25:55;22.95;;;10.88;;
33690;SDS011;20026;50.058;18.428;2023-02-18T11:28:30;23.45;;;12.52;;
33690;SDS011;20026;50.058;18.428;2023-02-18T11:30:58;35.60;;;17.83;;
33690;SDS011;20026;50.058;18.428;2023-02-18T11:35:54;31.33;;;12.95;;
33690;SDS011;20026;50.058;18.428;2023-02-18T11:38:22;23.40;;;10.07;;
33690;SDS011;20026;50.058;18.428;2023-02-18T11:40:52;28.40;;;13.02;;
33690;SDS011;20026;50.058;18.428;2023-02-18T11:43:20;33.67;;;14.18;;
33690;SDS011;20026;50.058;18.428;2023-02-18T11:45:46;36.40;;;17.30;;
33690;SDS011;20026;50.058;18.428;2023-02-18T11:48:16;31.17;;;14.25;;
33690;SDS011;20026;50.058;18.428;2023-02-18T11:50:43;22.98;;;10.27;;
33690;SDS011;20026;50.058;18.428;2023-02-18T11:53:25;24.92;;;10.32;;
33690;SDS011;20026;50.058;18.428;2023-02-18T11:55:55;21.23;;;8.82;;
33690;SDS011;20026;50.058;18.428;2023-02-18T11:58:22;23.58;;;11.52;;
33690;SDS011;20026;50.058;18.428;2023-02-18T12:00:48;36.85;;;16.70;;
33690;SDS011;20026;50.058;18.428;2023-02-18T12:05:56;31.15;;;15.45;;
33690;SDS011;20026;50.058;18.428;2023-02-18T12:08:23;28.20;;;14.20;;
33690;SDS011;20026;50.058;18.428;2023-02-18T12:10:53;40.38;;;19.23;;
33690;SDS011;20026;50.058;18.428;2023-02-18T12:13:25;30.73;;;13.63;;
33690;SDS011;20026;50.058;18.428;2023-02-18T12:21:35;29.98;;;13.27;;
33690;SDS011;20026;50.058;18.428;2023-02-18T12:29:27;200.48;;;89.93;;
33690;SDS011;20026;50.058;18.428;2023-02-18T12:32:04;165.48;;;71.38;;
33690;SDS011;20026;50.058;18.428;2023-02-18T12:34:41;87.57;;;37.80;;
33690;SDS011;20026;50.058;18.428;2023-02-18T12:39:57;118.72;;;46.80;;
33690;SDS011;20026;50.058;18.428;2023-02-18T12:45:17;193.48;;;60.35;;
33690;SDS011;20026;50.058;18.428;2023-02-18T12:57:55;151.20;;;61.78;;
33690;SDS011;20026;50.058;18.428;2023-02-18T13:03:09;154.70;;;54.92;;
33690;SDS011;20026;50.058;18.428;2023-02-18T13:05:38;88.82;;;34.60;;
33690;SDS011;20026;50.058;18.428;2023-02-18T13:10:51;234.13;;;99.00;;
33690;SDS011;20026;50.058;18.428;2023-02-18T13:13:20;56.42;;;24.95;;
33690;SDS011;20026;50.058;18.428;2023-02-18T13:15:49;106.35;;;47.60;;
33690;SDS011;20026;50.058;18.428;2023-02-18T13:18:23;176.50;;;83.07;;
33690;SDS011;20026;50.058;18.428;2023-02-18T13:20:51;82.32;;;40.78;;
33690;SDS011;20026;50.058;18.428;2023-02-18T13:23:20;66.22;;;33.47;;
33690;SDS011;20026;50.058;18.428;2023-02-18T13:25:48;80.95;;;44.65;;
33690;SDS011;20026;50.058;18.428;2023-02-18T13:28:25;127.00;;;74.03;;
33690;SDS011;20026;50.058;18.428;2023-02-18T13:30:58;101.40;;;57.75;;
33690;SDS011;20026;50.058;18.428;2023-02-18T13:33:42;131.43;;;72.00;;
33690;SDS011;20026;50.058;18.428;2023-02-18T13:36:17;205.50;;;102.40;;
33690;SDS011;20026;50.058;18.428;2023-02-18T13:41:16;156.27;;;80.95;;
33690;SDS011;20026;50.058;18.428;2023-02-18T13:43:43;152.05;;;71.40;;
33690;SDS011;20026;50.058;18.428;2023-02-18T13:46:13;157.55;;;77.25;;
33690;SDS011;20026;50.058;18.428;2023-02-18T13:48:42;132.63;;;63.83;;
33690;SDS011;20026;50.058;18.428;2023-02-18T13:51:10;210.15;;;114.45;;
33690;SDS011;20026;50.058;18.428;2023-02-18T13:53:37;133.48;;;76.53;;
33690;SDS011;20026;50.058;18.428;2023-02-18T13:58:40;87.78;;;50.47;;
33690;SDS011;20026;50.058;18.428;2023-02-18T14:06:16;122.65;;;96.65;;
33690;SDS011;20026;50.058;18.428;2023-02-18T14:08:42;97.18;;;66.03;;
33690;SDS011;20026;50.058;18.428;2023-02-18T14:16:07;76.90;;;47.83;;
33690;SDS011;20026;50.058;18.428;2023-02-18T14:26:17;84.18;;;49.78;;
33690;SDS011;20026;50.058;18.428;2023-02-18T14:33:44;71.63;;;45.55;;
33690;SDS011;20026;50.058;18.428;2023-02-18T14:44:12;47.88;;;30.15;;
33690;SDS011;20026;50.058;18.428;2023-02-18T14:54:48;51.13;;;35.83;;
33690;SDS011;20026;50.058;18.428;2023-02-18T14:57:16;74.40;;;48.55;;
33690;SDS011;20026;50.058;18.428;2023-02-18T14:59:43;60.45;;;39.25;;
33690;SDS011;20026;50.058;18.428;2023-02-18T15:02:19;60.63;;;37.63;;
33690;SDS011;20026;50.058;18.428;2023-02-18T15:04:46;68.28;;;41.85;;
33690;SDS011;20026;50.058;18.428;2023-02-18T15:07:14;63.05;;;36.33;;
33690;SDS011;20026;50.058;18.428;2023-02-18T15:09:46;62.85;;;43.38;;
33690;SDS011;20026;50.058;18.428;2023-02-18T15:12:15;107.25;;;86.15;;
33690;SDS011;20026;50.058;18.428;2023-02-18T15:14:42;63.20;;;48.75;;
33690;SDS011;20026;50.058;18.428;2023-02-18T15:17:12;77.10;;;57.58;;
33690;SDS011;20026;50.058;18.428;2023-02-18T15:19:42;86.45;;;60.65;;
33690;SDS011;20026;50.058;18.428;2023-02-18T15:22:13;462.27;;;213.48;;
33690;SDS011;20026;50.058;18.428;2023-02-18T15:24:40;829.97;;;510.63;;
33690;SDS011;20026;50.058;18.428;2023-02-18T15:27:10;348.58;;;308.42;;
33690;SDS011;20026;50.058;18.428;2023-02-18T15:29:37;150.25;;;111.88;;
33690;SDS011;20026;50.058;18.428;2023-02-18T15:32:17;144.50;;;103.40;;
33690;SDS011;20026;50.058;18.428;2023-02-18T15:34:43;123.90;;;99.75;;
33690;SDS011;20026;50.058;18.428;2023-02-18T15:37:11;282.45;;;252.55;;
33690;SDS011;20026;50.058;18.428;2023-02-18T15:39:37;240.07;;;213.70;;
33690;SDS011;20026;50.058;18.428;2023-02-18T15:44:49;95.85;;;62.33;;
33690;SDS011;20026;50.058;18.428;2023-02-18T15:47:16;66.65;;;43.35;;
33690;SDS011;20026;50.058;18.428;2023-02-18T15:49:50;76.55;;;50.08;;
33690;SDS011;20026;50.058;18.428;2023-02-18T15:52:22;50.33;;;35.70;;
33690;SDS011;20026;50.058;18.428;2023-02-18T15:54:48;61.85;;;41.20;;
33690;SDS011;20026;50.058;18.428;2023-02-18T15:57:14;42.05;;;29.00;;
33690;SDS011;20026;50.058;18.428;2023-02-18T15:59:52;47.38;;;28.02;;
33690;SDS011;20026;50.058;18.428;2023-02-18T16:02:20;54.90;;;48.35;;
33690;SDS011;20026;50.058;18.428;2023-02-18T16:04:51;57.08;;;42.63;;
33690;SDS011;20026;50.058;18.428;2023-02-18T16:07:26;34.72;;;23.60;;
33690;SDS011;20026;50.058;18.428;2023-02-18T16:12:57;182.60;;;163.55;;
33690;SDS011;20026;50.058;18.428;2023-02-18T16:17:52;49.47;;;37.38;;
33690;SDS011;20026;50.058;18.428;2023-02-18T16:22:52;108.70;;;60.70;;
33690;SDS011;20026;50.058;18.428;2023-02-18T16:27:49;64.82;;;29.48;;
33690;SDS011;20026;50.058;18.428;2023-02-18T16:30:17;98.40;;;39.50;;
33690;SDS011;20026;50.058;18.428;2023-02-18T16:32:44;142.50;;;49.35;;
33690;SDS011;20026;50.058;18.428;2023-02-18T16:35:10;93.47;;;35.15;;
33690;SDS011;20026;50.058;18.428;2023-02-18T16:37:36;75.43;;;31.27;;
33690;SDS011;20026;50.058;18.428;2023-02-18T16:40:03;636.65;;;372.92;;
33690;SDS011;20026;50.058;18.428;2023-02-18T16:42:29;133.93;;;52.33;;
33690;SDS011;20026;50.058;18.428;2023-02-18T16:44:55;96.07;;;65.38;;
33690;SDS011;20026;50.058;18.428;2023-02-18T16:47:21;99.28;;;49.28;;
33690;SDS011;20026;50.058;18.428;2023-02-18T16:49:48;412.67;;;140.50;;
33690;SDS011;20026;50.058;18.428;2023-02-18T16:52:15;258.42;;;79.18;;
33690;SDS011;20026;50.058;18.428;2023-02-18T16:54:42;269.00;;;81.78;;
33690;SDS011;20026;50.058;18.428;2023-02-18T16:57:09;447.52;;;145.20;;
33690;SDS011;20026;50.058;18.428;2023-02-18T16:59:35;297.77;;;100.93;;